createdAt,value
2018-01-11T00:00:44.808Z,986.26
2018-01-11T00:01:44.003Z,986.25
2018-01-11T00:02:43.991Z,986.2
2018-01-11T00:03:43.986Z,986.23
2018-01-11T00:04:43.977Z,986.21
2018-01-11T00:05:43.971Z,986.19
2018-01-11T00:06:43.965Z,986.16
2018-01-11T00:07:43.956Z,986.16
2018-01-11T00:08:43.950Z,986.15
2018-01-11T00:09:43.946Z,986.15
2018-01-11T00:10:43.939Z,986.17
2018-01-11T00:11:43.929Z,986.18
2018-01-11T00:12:43.922Z,986.19
2018-01-11T00:13:43.915Z,986.18
2018-01-11T00:14:43.908Z,986.2
2018-01-11T00:15:43.904Z,986.19
2018-01-11T00:16:43.894Z,986.18
2018-01-11T00:17:43.895Z,986.19
2018-01-11T00:18:43.923Z,986.18
2018-01-11T00:19:43.879Z,986.16
2018-01-11T00:20:43.866Z,986.16
2018-01-11T00:21:43.861Z,986.17
2018-01-11T00:22:43.854Z,986.19
2018-01-11T00:23:43.845Z,986.21
2018-01-11T00:24:43.848Z,986.23
2018-01-11T00:25:43.841Z,986.21
2018-01-11T00:26:43.838Z,986.24
2018-01-11T00:27:43.818Z,986.2
2018-01-11T00:28:43.813Z,986.16
2018-01-11T00:29:43.808Z,986.21
2018-01-11T00:30:43.798Z,986.21
2018-01-11T00:31:43.792Z,986.16
2018-01-11T00:32:43.792Z,986.19
2018-01-11T00:33:43.809Z,986.16
2018-01-11T00:34:43.779Z,986.15
2018-01-11T00:35:43.780Z,986.14
2018-01-11T00:36:43.758Z,986.14
2018-01-11T00:37:43.749Z,986.18
2018-01-11T00:38:43.743Z,986.14
2018-01-11T00:39:43.740Z,986.18
2018-01-11T00:40:43.734Z,986.15
2018-01-11T00:41:43.728Z,986.17
2018-01-11T00:42:43.731Z,986.14
2018-01-11T00:43:43.714Z,986.17
2018-01-11T00:44:43.704Z,986.13
2018-01-11T00:45:43.699Z,986.2
2018-01-11T00:46:43.690Z,986.2
2018-01-11T00:47:43.682Z,986.17
2018-01-11T00:48:43.677Z,986.17
2018-01-11T00:49:43.675Z,986.19
2018-01-11T00:50:43.673Z,986.21
2018-01-11T00:51:43.657Z,986.25
2018-01-11T00:52:43.657Z,986.22
2018-01-11T00:53:43.644Z,986.22
2018-01-11T00:54:43.638Z,986.19
2018-01-11T00:55:43.632Z,986.17
2018-01-11T00:56:43.633Z,986.24
2018-01-11T00:57:43.617Z,986.21
2018-01-11T00:58:43.615Z,986.2
2018-01-11T00:59:43.614Z,986.22
2018-01-11T01:00:43.606Z,986.21
2018-01-11T01:01:43.600Z,986.22
2018-01-11T01:02:43.590Z,986.22
2018-01-11T01:03:43.578Z,986.26
2018-01-11T01:04:43.574Z,986.26
2018-01-11T01:05:43.568Z,986.23
2018-01-11T01:06:43.559Z,986.25
2018-01-11T01:07:43.558Z,986.25
2018-01-11T01:08:43.546Z,986.28
2018-01-11T01:09:43.541Z,986.26
2018-01-11T01:10:43.535Z,986.26
2018-01-11T01:11:43.527Z,986.27
2018-01-11T01:12:43.521Z,986.23
2018-01-11T01:13:43.515Z,986.2
2018-01-11T01:14:43.510Z,986.24
2018-01-11T01:15:43.515Z,986.23
2018-01-11T01:16:43.495Z,986.22
2018-01-11T01:17:43.488Z,986.21
2018-01-11T01:18:43.483Z,986.22
2018-01-11T01:19:43.481Z,986.24
2018-01-11T01:20:43.469Z,986.27
2018-01-11T01:21:43.462Z,986.26
2018-01-11T01:22:43.456Z,986.25
2018-01-11T01:23:43.455Z,986.24
2018-01-11T01:24:43.457Z,986.27
2018-01-11T01:25:43.440Z,986.27
2018-01-11T01:26:43.431Z,986.32
2018-01-11T01:27:43.426Z,986.32
2018-01-11T01:28:43.417Z,986.26
2018-01-11T01:29:43.411Z,986.29
2018-01-11T01:30:43.405Z,986.26
2018-01-11T01:31:43.398Z,986.34
2018-01-11T01:32:43.392Z,986.31
2018-01-11T01:33:43.386Z,986.36
2018-01-11T01:34:43.379Z,986.34
2018-01-11T01:35:43.372Z,986.34
2018-01-11T01:36:43.365Z,986.35
2018-01-11T01:37:43.359Z,986.3
2018-01-11T01:38:43.352Z,986.33
2018-01-11T01:39:43.345Z,986.33
2018-01-11T01:40:43.339Z,986.36
2018-01-11T01:41:43.337Z,986.34
2018-01-11T01:42:43.331Z,986.35
2018-01-11T01:43:43.318Z,986.34
2018-01-11T01:44:43.312Z,986.36
2018-01-11T01:45:43.303Z,986.31
2018-01-11T01:46:43.348Z,986.29
2018-01-11T01:47:43.289Z,986.33
2018-01-11T01:48:43.287Z,986.28
2018-01-11T01:49:43.287Z,986.26
2018-01-11T01:50:43.275Z,986.28
2018-01-11T01:51:43.262Z,986.24
2018-01-11T01:52:43.256Z,986.26
2018-01-11T01:53:43.250Z,986.3
2018-01-11T01:54:43.240Z,986.28
2018-01-11T01:55:43.233Z,986.31
2018-01-11T01:56:43.227Z,986.27
2018-01-11T01:57:43.221Z,986.3
2018-01-11T01:58:43.212Z,986.33
2018-01-11T01:59:43.204Z,986.31
2018-01-11T02:00:43.202Z,986.34
2018-01-11T02:01:47.049Z,986.31
2018-01-11T02:02:43.183Z,986.33
2018-01-11T02:03:43.174Z,986.37
2018-01-11T02:04:43.169Z,986.34
2018-01-11T02:05:43.159Z,986.36
2018-01-11T02:06:43.152Z,986.36
2018-01-11T02:07:43.144Z,986.36
2018-01-11T02:08:43.137Z,986.37
2018-01-11T02:09:43.130Z,986.36
2018-01-11T02:10:43.123Z,986.33
2018-01-11T02:11:43.116Z,986.34
2018-01-11T02:12:43.106Z,986.34
2018-01-11T02:13:43.099Z,986.32
2018-01-11T02:14:43.091Z,986.31
2018-01-11T02:15:43.085Z,986.36
2018-01-11T02:16:43.075Z,986.37
2018-01-11T02:17:43.067Z,986.42
2018-01-11T02:18:43.061Z,986.41
2018-01-11T02:19:43.053Z,986.35
2018-01-11T02:20:43.044Z,986.36
2018-01-11T02:21:43.085Z,986.34
2018-01-11T02:22:43.037Z,986.27
2018-01-11T02:23:43.021Z,986.29
2018-01-11T02:24:43.016Z,986.27
2018-01-11T02:25:43.006Z,986.29
2018-01-11T02:26:42.997Z,986.23
2018-01-11T02:27:42.989Z,986.25
2018-01-11T02:28:42.985Z,986.25
2018-01-11T02:29:42.984Z,986.25
2018-01-11T02:30:42.965Z,986.22
2018-01-11T02:31:42.958Z,986.25
2018-01-11T02:32:42.951Z,986.25
2018-01-11T02:33:42.943Z,986.25
2018-01-11T02:34:42.938Z,986.25
2018-01-11T02:35:42.925Z,986.27
2018-01-11T02:36:42.931Z,986.26
2018-01-11T02:37:42.909Z,986.29
2018-01-11T02:38:42.908Z,986.26
2018-01-11T02:39:42.893Z,986.24
2018-01-11T02:40:42.887Z,986.26
2018-01-11T02:41:42.878Z,986.29
2018-01-11T02:42:42.871Z,986.27
2018-01-11T02:43:42.862Z,986.27
2018-01-11T02:44:42.871Z,986.33
2018-01-11T02:45:42.851Z,986.31
2018-01-11T02:46:42.837Z,986.34
2018-01-11T02:47:43.032Z,986.31
2018-01-11T02:48:42.821Z,986.37
2018-01-11T02:49:42.814Z,986.34
2018-01-11T02:50:42.805Z,986.37
2018-01-11T02:51:42.800Z,986.35
2018-01-11T02:52:42.793Z,986.36
2018-01-11T02:53:42.779Z,986.36
2018-01-11T02:54:42.772Z,986.36
2018-01-11T02:55:42.763Z,986.35
2018-01-11T02:56:42.754Z,986.38
2018-01-11T02:57:42.747Z,986.36
2018-01-11T02:58:42.738Z,986.37
2018-01-11T02:59:42.730Z,986.33
2018-01-11T03:00:42.722Z,986.32
2018-01-11T03:01:42.712Z,986.33
2018-01-11T03:02:46.059Z,986.35
2018-01-11T03:03:42.698Z,986.36
2018-01-11T03:04:42.687Z,986.36
2018-01-11T03:05:42.725Z,986.36
2018-01-11T03:06:42.671Z,986.34
2018-01-11T03:07:42.663Z,986.38
2018-01-11T03:08:42.654Z,986.42
2018-01-11T03:09:42.646Z,986.44
2018-01-11T03:10:42.640Z,986.4
2018-01-11T03:11:42.630Z,986.4
2018-01-11T03:12:42.621Z,986.41
2018-01-11T03:13:42.614Z,986.41
2018-01-11T03:14:42.604Z,986.38
2018-01-11T03:15:42.600Z,986.37
2018-01-11T03:16:42.591Z,986.44
2018-01-11T03:17:42.579Z,986.41
2018-01-11T03:18:42.570Z,986.44
2018-01-11T03:19:42.563Z,986.41
2018-01-11T03:20:42.554Z,986.42
2018-01-11T03:21:42.556Z,986.43
2018-01-11T03:22:42.622Z,986.44
2018-01-11T03:23:42.529Z,986.43
2018-01-11T03:24:42.522Z,986.41
2018-01-11T03:25:42.512Z,986.4
2018-01-11T03:26:42.505Z,986.42
2018-01-11T03:27:42.496Z,986.42
2018-01-11T03:28:42.487Z,986.36
2018-01-11T03:29:42.481Z,986.43
2018-01-11T03:30:42.471Z,986.46
2018-01-11T03:31:42.461Z,986.41
2018-01-11T03:32:42.455Z,986.41
2018-01-11T03:33:42.444Z,986.4
2018-01-11T03:34:42.439Z,986.43
2018-01-11T03:35:42.428Z,986.44
2018-01-11T03:36:42.418Z,986.39
2018-01-11T03:37:42.418Z,986.41
2018-01-11T03:38:42.402Z,986.44
2018-01-11T03:39:42.397Z,986.42
2018-01-11T03:40:42.385Z,986.5
2018-01-11T03:41:42.381Z,986.45
2018-01-11T03:42:42.375Z,986.5
2018-01-11T03:43:42.371Z,986.5
2018-01-11T03:44:42.360Z,986.55
2018-01-11T03:45:42.343Z,986.52
2018-01-11T03:46:42.340Z,986.59
2018-01-11T03:47:42.324Z,986.55
2018-01-11T03:48:42.323Z,986.58
2018-01-11T03:49:42.306Z,986.55
2018-01-11T03:50:42.300Z,986.59
2018-01-11T03:51:42.290Z,986.55
2018-01-11T03:52:42.282Z,986.58
2018-01-11T03:53:42.275Z,986.61
2018-01-11T03:54:42.268Z,986.58
2018-01-11T03:55:42.257Z,986.62
2018-01-11T03:56:42.249Z,986.59
2018-01-11T03:57:42.240Z,986.63
2018-01-11T03:58:42.229Z,986.62
2018-01-11T03:59:42.260Z,986.66
2018-01-11T04:00:42.217Z,986.63
2018-01-11T04:01:42.207Z,986.61
2018-01-11T04:02:42.197Z,986.64
2018-01-11T04:03:42.189Z,986.64
2018-01-11T04:04:42.184Z,986.69
2018-01-11T04:05:42.173Z,986.63
2018-01-11T04:06:42.162Z,986.68
2018-01-11T04:07:42.156Z,986.67
2018-01-11T04:08:42.147Z,986.7
2018-01-11T04:09:42.136Z,986.66
2018-01-11T04:10:42.135Z,986.73
2018-01-11T04:11:42.120Z,986.73
2018-01-11T04:12:42.114Z,986.7
2018-01-11T04:13:42.103Z,986.7
2018-01-11T04:14:42.095Z,986.69
2018-01-11T04:15:42.090Z,986.7
2018-01-11T04:16:42.076Z,986.72
2018-01-11T04:17:42.069Z,986.74
2018-01-11T04:18:42.116Z,986.76
2018-01-11T04:19:42.051Z,986.79
2018-01-11T04:20:42.041Z,986.78
2018-01-11T04:21:42.033Z,986.79
2018-01-11T04:22:42.027Z,986.77
2018-01-11T04:23:42.017Z,986.84
2018-01-11T04:24:42.007Z,986.8
2018-01-11T04:25:41.998Z,986.78
2018-01-11T04:26:41.989Z,986.85
2018-01-11T04:27:41.986Z,986.83
2018-01-11T04:28:41.974Z,986.88
2018-01-11T04:29:41.964Z,986.86
2018-01-11T04:30:41.960Z,986.9
2018-01-11T04:31:41.946Z,986.92
2018-01-11T04:32:41.937Z,986.93
2018-01-11T04:33:41.934Z,986.96
2018-01-11T04:34:41.922Z,986.97
2018-01-11T04:35:41.915Z,986.96
2018-01-11T04:36:41.903Z,987.01
2018-01-11T04:37:41.905Z,986.99
2018-01-11T04:38:41.885Z,987
2018-01-11T04:39:41.877Z,986.99
2018-01-11T04:40:41.873Z,987.02
2018-01-11T04:41:41.861Z,987
2018-01-11T04:42:41.863Z,986.99
2018-01-11T04:43:41.857Z,987.03
2018-01-11T04:44:41.834Z,987.02
2018-01-11T04:45:41.828Z,987.02
2018-01-11T04:46:41.822Z,987.01
2018-01-11T04:47:41.806Z,987.04
2018-01-11T04:48:41.800Z,987.05
2018-01-11T04:49:41.802Z,987.09
2018-01-11T04:50:41.781Z,987.07
2018-01-11T04:51:41.773Z,987.09
2018-01-11T04:52:41.766Z,987.04
2018-01-11T04:53:41.755Z,987.05
2018-01-11T04:54:41.748Z,987.07
2018-01-11T04:55:41.743Z,987.05
2018-01-11T04:56:41.734Z,987.09
2018-01-11T04:57:41.732Z,987.1
2018-01-11T04:58:41.713Z,987.09
2018-01-11T04:59:41.704Z,987.11
2018-01-11T05:00:41.694Z,987.11
2018-01-11T05:01:41.687Z,987.1
2018-01-11T05:02:41.677Z,987.13
2018-01-11T05:03:41.669Z,987.17
2018-01-11T05:04:41.660Z,987.15
2018-01-11T05:05:41.649Z,987.13
2018-01-11T05:06:41.642Z,987.17
2018-01-11T05:07:41.632Z,987.13
2018-01-11T05:08:41.623Z,987.15
2018-01-11T05:09:41.616Z,987.13
2018-01-11T05:10:41.606Z,987.15
2018-01-11T05:11:41.596Z,987.14
2018-01-11T05:12:41.587Z,987.18
2018-01-11T05:13:41.583Z,987.18
2018-01-11T05:14:41.572Z,987.19
2018-01-11T05:15:41.561Z,987.19
2018-01-11T05:16:41.554Z,987.2
2018-01-11T05:17:41.543Z,987.19
2018-01-11T05:18:41.535Z,987.23
2018-01-11T05:19:41.527Z,987.25
2018-01-11T05:20:41.518Z,987.26
2018-01-11T05:21:41.509Z,987.32
2018-01-11T05:22:41.500Z,987.29
2018-01-11T05:23:41.490Z,987.3
2018-01-11T05:24:41.481Z,987.3
2018-01-11T05:25:41.474Z,987.33
2018-01-11T05:26:41.462Z,987.32
2018-01-11T05:27:41.453Z,987.31
2018-01-11T05:28:41.454Z,987.34
2018-01-11T05:29:41.444Z,987.34
2018-01-11T05:30:41.425Z,987.34
2018-01-11T05:31:41.416Z,987.35
2018-01-11T05:32:41.408Z,987.38
2018-01-11T05:33:41.398Z,987.4
2018-01-11T05:34:41.398Z,987.42
2018-01-11T05:35:41.379Z,987.4
2018-01-11T05:36:41.371Z,987.4
2018-01-11T05:37:41.361Z,987.41
2018-01-11T05:38:41.352Z,987.41
2018-01-11T05:39:41.344Z,987.41
2018-01-11T05:40:41.334Z,987.4
2018-01-11T05:41:41.329Z,987.42
2018-01-11T05:42:41.315Z,987.43
2018-01-11T05:43:41.307Z,987.48
2018-01-11T05:44:41.296Z,987.48
2018-01-11T05:45:41.288Z,987.42
2018-01-11T05:46:41.284Z,987.47
2018-01-11T05:47:41.271Z,987.44
2018-01-11T05:48:41.260Z,987.48
2018-01-11T05:49:41.252Z,987.49
2018-01-11T05:50:41.242Z,987.49
2018-01-11T05:51:41.238Z,987.49
2018-01-11T05:52:41.228Z,987.53
2018-01-11T05:53:41.217Z,987.51
2018-01-11T05:54:41.208Z,987.54
2018-01-11T05:55:41.199Z,987.52
2018-01-11T05:56:41.191Z,987.57
2018-01-11T05:57:41.183Z,987.55
2018-01-11T05:58:41.174Z,987.52
2018-01-11T05:59:41.164Z,987.52
2018-01-11T06:00:41.156Z,987.5
2018-01-11T06:01:41.145Z,987.49
2018-01-11T06:02:41.137Z,987.53
2018-01-11T06:03:41.129Z,987.51
2018-01-11T06:04:44.523Z,987.56
2018-01-11T06:05:41.111Z,987.55
2018-01-11T06:06:41.102Z,987.56
2018-01-11T06:07:41.094Z,987.54
2018-01-11T06:08:41.085Z,987.55
2018-01-11T06:09:41.079Z,987.6
2018-01-11T06:10:41.068Z,987.58
2018-01-11T06:11:41.059Z,987.65
2018-01-11T06:12:41.050Z,987.65
2018-01-11T06:13:41.045Z,987.69
2018-01-11T06:14:41.041Z,987.68
2018-01-11T06:15:41.025Z,987.71
2018-01-11T06:16:41.058Z,987.75
2018-01-11T06:17:41.006Z,987.76
2018-01-11T06:18:40.998Z,987.78
2018-01-11T06:19:40.990Z,987.78
2018-01-11T06:20:40.995Z,987.76
2018-01-11T06:21:40.972Z,987.77
2018-01-11T06:22:40.964Z,987.76
2018-01-11T06:23:40.954Z,987.81
2018-01-11T06:24:40.943Z,987.78
2018-01-11T06:25:40.939Z,987.8
2018-01-11T06:26:40.928Z,987.84
2018-01-11T06:27:40.918Z,987.79
2018-01-11T06:28:40.909Z,987.82
2018-01-11T06:29:40.900Z,987.81
2018-01-11T06:30:40.892Z,987.79
2018-01-11T06:31:40.884Z,987.83
2018-01-11T06:32:40.874Z,987.87
2018-01-11T06:33:40.866Z,987.82
2018-01-11T06:34:40.862Z,987.83
2018-01-11T06:35:40.847Z,987.86
2018-01-11T06:36:40.839Z,987.82
2018-01-11T06:37:40.830Z,987.83
2018-01-11T06:38:40.821Z,987.85
2018-01-11T06:39:40.811Z,987.85
2018-01-11T06:40:40.804Z,987.85
2018-01-11T06:41:40.796Z,987.85
2018-01-11T06:42:40.796Z,987.82
2018-01-11T06:43:40.780Z,987.88
2018-01-11T06:44:40.769Z,987.84
2018-01-11T06:45:40.760Z,987.9
2018-01-11T06:46:40.750Z,987.89
2018-01-11T06:47:40.749Z,987.85
2018-01-11T06:48:40.742Z,987.83
2018-01-11T06:49:40.725Z,987.87
2018-01-11T06:50:40.716Z,987.87
2018-01-11T06:51:40.706Z,987.87
2018-01-11T06:52:40.700Z,987.84
2018-01-11T06:53:40.691Z,987.87
2018-01-11T06:54:40.686Z,987.88
2018-01-11T06:55:40.674Z,987.88
2018-01-11T06:56:40.666Z,987.86
2018-01-11T06:57:40.654Z,987.88
2018-01-11T06:58:40.645Z,987.89
2018-01-11T06:59:40.638Z,987.88
2018-01-11T07:00:41.430Z,987.9
2018-01-11T07:01:40.636Z,987.86
2018-01-11T07:02:40.611Z,987.92
2018-01-11T07:03:40.605Z,987.89
2018-01-11T07:04:40.601Z,987.91
2018-01-11T07:05:40.585Z,987.95
2018-01-11T07:06:40.576Z,987.96
2018-01-11T07:07:40.567Z,988.01
2018-01-11T07:08:40.560Z,988.01
2018-01-11T07:09:40.550Z,987.99
2018-01-11T07:10:40.550Z,987.99
2018-01-11T07:11:40.533Z,988.06
2018-01-11T07:12:40.524Z,988.02
2018-01-11T07:13:40.516Z,988.03
2018-01-11T07:14:40.507Z,988.07
2018-01-11T07:15:40.512Z,988.08
2018-01-11T07:16:40.489Z,988.11
2018-01-11T07:17:40.481Z,988.1
2018-01-11T07:18:40.472Z,988.11
2018-01-11T07:19:40.464Z,988.12
2018-01-11T07:20:40.454Z,988.11
2018-01-11T07:21:40.455Z,988.12
2018-01-11T07:22:40.436Z,988.09
2018-01-11T07:23:40.428Z,988.09
2018-01-11T07:24:40.419Z,988.11
2018-01-11T07:25:40.411Z,988.09
2018-01-11T07:26:40.402Z,988.12
2018-01-11T07:27:40.394Z,988.13
2018-01-11T07:28:40.385Z,988.16
2018-01-11T07:29:40.378Z,988.16
2018-01-11T07:30:40.369Z,988.18
2018-01-11T07:31:40.368Z,988.2
2018-01-11T07:32:40.351Z,988.19
2018-01-11T07:33:40.343Z,988.2
2018-01-11T07:34:40.334Z,988.2
2018-01-11T07:35:40.327Z,988.21
2018-01-11T07:36:40.321Z,988.2
2018-01-11T07:37:40.308Z,988.22
2018-01-11T07:38:40.306Z,988.22
2018-01-11T07:39:40.291Z,988.21
2018-01-11T07:40:40.290Z,988.26
2018-01-11T07:41:40.274Z,988.27
2018-01-11T07:42:40.265Z,988.28
2018-01-11T07:43:40.257Z,988.27
2018-01-11T07:44:40.249Z,988.24
2018-01-11T07:45:40.238Z,988.27
2018-01-11T07:46:40.237Z,988.32
2018-01-11T07:47:40.230Z,988.3
2018-01-11T07:48:40.215Z,988.29
2018-01-11T07:49:40.206Z,988.33
2018-01-11T07:50:40.198Z,988.33
2018-01-11T07:51:40.198Z,988.35
2018-01-11T07:52:40.180Z,988.4
2018-01-11T07:53:40.181Z,988.39
2018-01-11T07:54:40.174Z,988.37
2018-01-11T07:55:40.156Z,988.41
2018-01-11T07:56:40.146Z,988.42
2018-01-11T07:57:40.138Z,988.46
2018-01-11T07:58:40.131Z,988.47
2018-01-11T07:59:40.122Z,988.52
2018-01-11T08:00:40.113Z,988.54
2018-01-11T08:01:40.107Z,988.51
2018-01-11T08:02:40.101Z,988.48
2018-01-11T08:03:40.089Z,988.53
2018-01-11T08:04:40.080Z,988.54
2018-01-11T08:05:40.079Z,988.54
2018-01-11T08:06:40.064Z,988.54
2018-01-11T08:07:40.055Z,988.57
2018-01-11T08:08:40.054Z,988.56
2018-01-11T08:09:40.039Z,988.55
2018-01-11T08:10:40.036Z,988.57
2018-01-11T08:11:40.022Z,988.59
2018-01-11T08:12:40.016Z,988.6
2018-01-11T08:13:40.006Z,988.58
2018-01-11T08:14:39.996Z,988.59
2018-01-11T08:15:39.995Z,988.56
2018-01-11T08:16:39.981Z,988.58
2018-01-11T08:17:39.975Z,988.59
2018-01-11T08:18:39.962Z,988.61
2018-01-11T08:19:39.954Z,988.61
2018-01-11T08:20:39.947Z,988.64
2018-01-11T08:21:41.738Z,988.64
2018-01-11T08:22:39.930Z,988.66
2018-01-11T08:23:39.921Z,988.68
2018-01-11T08:24:39.914Z,988.68
2018-01-11T08:25:39.914Z,988.75
2018-01-11T08:26:39.897Z,988.76
2018-01-11T08:27:39.891Z,988.74
2018-01-11T08:28:39.883Z,988.76
2018-01-11T08:29:39.872Z,988.81
2018-01-11T08:30:39.863Z,988.82
2018-01-11T08:31:39.857Z,988.83
2018-01-11T08:32:39.851Z,988.82
2018-01-11T08:33:39.842Z,988.84
2018-01-11T08:34:39.831Z,988.77
2018-01-11T08:35:39.822Z,988.82
2018-01-11T08:36:39.813Z,988.85
2018-01-11T08:37:39.813Z,988.85
2018-01-11T08:38:39.801Z,988.85
2018-01-11T08:39:39.789Z,988.86
2018-01-11T08:40:39.779Z,988.84
2018-01-11T08:41:39.775Z,988.83
2018-01-11T08:42:39.763Z,988.83
2018-01-11T08:43:39.756Z,988.86
2018-01-11T08:44:39.747Z,988.91
2018-01-11T08:45:39.738Z,988.86
2018-01-11T08:46:39.731Z,988.89
2018-01-11T08:47:39.729Z,988.86
2018-01-11T08:48:39.714Z,988.91
2018-01-11T08:49:39.711Z,988.9
2018-01-11T08:50:39.703Z,988.93
2018-01-11T08:51:39.688Z,988.95
2018-01-11T08:52:39.681Z,988.98
2018-01-11T08:53:39.672Z,988.97
2018-01-11T08:54:39.662Z,988.99
2018-01-11T08:55:39.654Z,988.98
2018-01-11T08:56:39.649Z,989
2018-01-11T08:57:39.642Z,989.03
2018-01-11T08:58:39.630Z,989.02
2018-01-11T08:59:39.623Z,989.02
2018-01-11T09:00:39.617Z,989.05
2018-01-11T09:01:39.607Z,989.08
2018-01-11T09:02:39.600Z,989.03
2018-01-11T09:03:39.592Z,989.08
2018-01-11T09:04:39.583Z,989.07
2018-01-11T09:05:39.575Z,989.11
2018-01-11T09:06:39.567Z,989.09
2018-01-11T09:07:39.567Z,989.07
2018-01-11T09:08:39.557Z,989.07
2018-01-11T09:09:39.547Z,989.09
2018-01-11T09:10:39.539Z,989.14
2018-01-11T09:11:39.530Z,989.15
2018-01-11T09:12:39.520Z,989.15
2018-01-11T09:13:39.513Z,989.15
2018-01-11T09:14:39.510Z,989.2
2018-01-11T09:15:39.499Z,989.18
2018-01-11T09:16:39.494Z,989.21
2018-01-11T09:17:39.484Z,989.22
2018-01-11T09:18:39.518Z,989.25
2018-01-11T09:19:39.517Z,989.24
2018-01-11T09:20:39.464Z,989.25
2018-01-11T09:21:39.455Z,989.27
2018-01-11T09:22:39.449Z,989.28
2018-01-11T09:23:39.440Z,989.3
2018-01-11T09:24:39.433Z,989.28
2018-01-11T09:25:39.426Z,989.3
2018-01-11T09:26:39.420Z,989.28
2018-01-11T09:27:39.414Z,989.29
2018-01-11T09:28:39.405Z,989.3
2018-01-11T09:29:39.400Z,989.31
2018-01-11T09:30:39.392Z,989.33
2018-01-11T09:31:39.384Z,989.33
2018-01-11T09:32:39.379Z,989.35
2018-01-11T09:33:39.375Z,989.37
2018-01-11T09:34:39.363Z,989.35
2018-01-11T09:35:39.356Z,989.35
2018-01-11T09:36:39.351Z,989.39
2018-01-11T09:37:39.362Z,989.38
2018-01-11T09:38:39.336Z,989.36
2018-01-11T09:39:39.336Z,989.36
2018-01-11T09:40:39.323Z,989.38
2018-01-11T09:41:39.317Z,989.39
2018-01-11T09:42:39.309Z,989.4
2018-01-11T09:43:39.304Z,989.37
2018-01-11T09:44:39.297Z,989.38
2018-01-11T09:45:39.290Z,989.38
2018-01-11T09:46:39.282Z,989.41
2018-01-11T09:47:39.280Z,989.41
2018-01-11T09:48:39.271Z,989.39
2018-01-11T09:49:39.264Z,989.4
2018-01-11T09:50:39.257Z,989.43
2018-01-11T09:51:39.250Z,989.42
2018-01-11T09:52:39.298Z,989.42
2018-01-11T09:53:39.245Z,989.43
2018-01-11T09:54:39.231Z,989.42
2018-01-11T09:55:39.235Z,989.41
2018-01-11T09:56:39.218Z,989.38
2018-01-11T09:57:39.212Z,989.39
2018-01-11T09:58:39.211Z,989.43
2018-01-11T09:59:39.201Z,989.42
2018-01-11T10:00:39.194Z,989.4
2018-01-11T10:01:39.188Z,989.41
2018-01-11T10:02:39.182Z,989.44
2018-01-11T10:03:39.187Z,989.38
2018-01-11T10:04:39.170Z,989.41
2018-01-11T10:05:39.166Z,989.43
2018-01-11T10:06:39.158Z,989.46
2018-01-11T10:07:41.862Z,989.41
2018-01-11T10:08:39.164Z,989.45
2018-01-11T10:09:39.143Z,989.47
2018-01-11T10:10:39.143Z,989.44
2018-01-11T10:11:39.128Z,989.42
2018-01-11T10:12:39.124Z,989.43
2018-01-11T10:13:39.114Z,989.41
2018-01-11T10:14:39.108Z,989.4
2018-01-11T10:15:39.104Z,989.38
2018-01-11T10:16:39.099Z,989.38
2018-01-11T10:17:39.090Z,989.36
2018-01-11T10:18:39.085Z,989.33
2018-01-11T10:19:39.087Z,989.33
2018-01-11T10:20:39.071Z,989.3
2018-01-11T10:21:39.065Z,989.28
2018-01-11T10:22:39.058Z,989.24
2018-01-11T10:52:57.572Z,989.25
2018-01-11T10:53:56.753Z,989.24
2018-01-11T10:54:56.741Z,989.21
2018-01-11T10:55:56.754Z,989.26
2018-01-11T10:56:56.721Z,989.25
2018-01-11T10:57:56.711Z,989.24
2018-01-11T10:58:56.698Z,989.24
2018-01-11T10:59:56.690Z,989.25
2018-01-11T11:00:56.679Z,989.24
2018-01-11T11:01:56.671Z,989.23
2018-01-11T11:02:56.662Z,989.21
2018-01-11T11:03:56.655Z,989.18
2018-01-11T11:04:56.648Z,989.24
2018-01-11T11:05:56.640Z,989.21
2018-01-11T11:06:56.632Z,989.23
2018-01-11T11:07:56.629Z,989.2
2018-01-11T11:08:56.621Z,989.24
2018-01-11T11:09:56.622Z,989.18
2018-01-11T11:10:56.605Z,989.19
2018-01-11T11:11:56.600Z,989.2
2018-01-11T11:12:56.594Z,989.22
2018-01-11T11:13:56.629Z,989.2
2018-01-11T11:14:56.580Z,989.23
2018-01-11T11:15:56.575Z,989.22
2018-01-11T11:16:56.576Z,989.25
2018-01-11T11:17:56.561Z,989.23
2018-01-11T11:18:56.559Z,989.22
2018-01-11T11:19:56.552Z,989.21
2018-01-11T11:20:56.544Z,989.23
2018-01-11T11:21:56.539Z,989.23
2018-01-11T11:22:56.532Z,989.19
2018-01-11T11:23:56.530Z,989.19
2018-01-11T11:24:56.523Z,989.21
2018-01-11T11:25:56.516Z,989.22
2018-01-11T11:26:56.512Z,989.21
2018-01-11T11:27:56.507Z,989.22
2018-01-11T11:28:56.500Z,989.18
2018-01-11T11:29:56.495Z,989.23
2018-01-11T11:30:56.491Z,989.21
2018-01-11T11:31:56.487Z,989.17
2018-01-11T11:32:56.486Z,989.17
2018-01-11T11:33:56.475Z,989.17
2018-01-11T11:34:56.471Z,989.12
2018-01-11T11:35:56.468Z,989.16
2018-01-11T11:36:56.461Z,989.16
2018-01-11T11:37:56.460Z,989.17
2018-01-11T11:38:56.449Z,989.13
2018-01-11T11:39:56.446Z,989.13
2018-01-11T11:40:56.441Z,989.14
2018-01-11T11:41:56.436Z,989.13
2018-01-11T11:42:56.444Z,989.17
2018-01-11T11:43:56.425Z,989.16
2018-01-11T11:44:56.422Z,989.13
2018-01-11T11:45:56.416Z,989.12
2018-01-11T11:46:56.413Z,989.11
2018-01-11T11:47:56.462Z,989.08
2018-01-11T11:48:56.407Z,989.08
2018-01-11T11:49:56.398Z,989.1
2018-01-11T11:50:56.392Z,989.04
2018-01-11T11:51:56.390Z,989.05
2018-01-11T11:52:56.386Z,989.06
2018-01-11T11:53:56.381Z,989.06
2018-01-11T11:54:56.376Z,989.03
2018-01-11T11:55:56.382Z,989
2018-01-11T11:56:56.369Z,988.98
2018-01-11T11:57:56.365Z,988.99
2018-01-11T11:58:56.356Z,989
2018-01-11T11:59:56.352Z,989
2018-01-11T12:00:56.348Z,989.02
2018-01-11T12:01:56.349Z,989.03
2018-01-11T12:02:56.348Z,989.08
2018-01-11T12:03:56.335Z,989.05
2018-01-11T12:04:56.335Z,989.04
2018-01-11T12:05:56.327Z,989.05
2018-01-11T12:06:56.323Z,989.02
2018-01-11T12:07:56.317Z,989.04
2018-01-11T12:08:56.313Z,989.03
2018-01-11T12:09:56.308Z,989.04
2018-01-11T12:10:56.305Z,989.08
2018-01-11T12:11:56.300Z,989.04
2018-01-11T12:12:56.294Z,989.06
2018-01-11T12:13:56.294Z,989.05
2018-01-11T12:14:56.293Z,989.06
2018-01-11T12:15:56.283Z,989.1
2018-01-11T12:16:56.278Z,989.09
2018-01-11T12:17:56.273Z,989.07
2018-01-11T12:18:56.273Z,989.07
2018-01-11T12:19:56.273Z,989.07
2018-01-11T12:20:56.265Z,989.06
2018-01-11T12:21:56.264Z,989.07
2018-01-11T12:22:56.252Z,989.08
2018-01-11T12:23:56.249Z,989.05
2018-01-11T12:24:56.243Z,989.08
2018-01-11T12:25:56.242Z,989.08
2018-01-11T12:26:56.239Z,989.08
2018-01-11T12:27:56.238Z,989.08
2018-01-11T12:28:56.229Z,989.06
2018-01-11T12:29:56.226Z,989.1
2018-01-11T12:30:56.218Z,989.05
2018-01-11T12:31:56.215Z,989.09
2018-01-11T12:32:56.211Z,989.11
2018-01-11T12:33:56.228Z,989.1
2018-01-11T12:34:56.213Z,989.12
2018-01-11T12:35:56.203Z,989.1
2018-01-11T12:36:56.194Z,989.08
2018-01-11T12:37:56.188Z,989.12
2018-01-11T12:38:56.208Z,989.12
2018-01-11T12:39:56.183Z,989.14
2018-01-11T12:40:56.177Z,989.13
2018-01-11T12:41:56.175Z,989.15
2018-01-11T12:42:56.169Z,989.14
2018-01-11T12:43:56.164Z,989.15
2018-01-11T12:44:56.161Z,989.21
2018-01-11T12:45:56.158Z,989.19
2018-01-11T12:46:56.171Z,989.13
2018-01-11T12:47:56.149Z,989.16
2018-01-11T12:48:56.142Z,989.22
2018-01-11T12:49:56.138Z,989.18
2018-01-11T12:50:56.135Z,989.11
2018-01-11T12:51:56.132Z,989.2
2018-01-11T12:52:56.127Z,989.19
2018-01-11T12:53:56.127Z,989.22
2018-01-11T12:54:56.121Z,989.2
2018-01-11T12:55:56.121Z,989.19
2018-01-11T12:56:56.112Z,989.2
2018-01-11T12:57:56.108Z,989.21
2018-01-11T12:58:56.105Z,989.24
2018-01-11T12:59:56.103Z,989.3
2018-01-11T13:00:56.098Z,989.3